Boeing 737-900ER авиакомпании United выкатился на снег в Чикаго

Boeing 737-924ERWL авиакомпании United Airlines (UA) съехал на снег после посадки в аэропорту О’Хара.

Инцидент произошёл в 11:26 по местному времени 19 января. На борту находились 129 человек; пострадавших нет.

Самолёт под регистрационным номером N69816*, выполнявший рейс UA656 из Финикса (PHX) в Чикаго (ORD), приземлился в аэропорту назначения на ВПП 04R, но перебежал полосу и остановился, когда его переднее шасси увязло в заснеженном грунте.

Пассажиры были эвакуированы с помощью мобильных трапов и доставлены на автобусах в терминал. Авиалайнер получил незначительные повреждения.

Авиакомпания обвинила в инциденте погодные условия.

Показания METAR:

KORD 191802Z 04022G29KT 5SM R10L/1400VP6000FT BLSN OVC016 M04/M06 A3002 RMK AO2 PK WND 03029/1800 SNE1759 P0000 T10391061 $=
KORD 191751Z 04017G29KT 4SM -SN BLSN OVC016 M04/M06 A3003 RMK AO2 PK WND 05029/1748 SLP178 4/005 933008 P0000 60002 T10391061 11033 21039 50001 $=
KORD 191651Z 04019G29KT 3SM -SN BLSN BKN014 OVC020 M04/M06 A3004 RMK AO2 PK WND 04030/1604 SLP181 P0000 T10391056 $=
KORD 191615Z 04021G29KT 3SM -SN BLSN OVC014 M04/M06 A3004 RMK AO2 PK WND 04030/1604 P0000 T10391056 $=

*для иллюстрации использовано фото другого самолёта United Airlines той же модификации

 

Инциденты с самолётами United Airlines

Сильные вибрации вернули Boeing 737-900ER в аэропорт

Сильные вибрации вернули Boeing 737-900ER в аэропорт

Boeing 737-924ERWL авиакомпании United Airlines (UA) вернулся в аэропорт из-за вибраций в фюзеляже. Вскоре после

Boeing 757-200 авиакомпании United не вылетел из Исландии из-за отказа двигателя Rolls-Royce

Boeing 757-200 авиакомпании United не вылетел из Исландии из-за отказа двигателя Rolls-Royce

Boeing 757-224WL авиакомпании United Airlines (UA) вернулся в Исландию после отказа двигателя. Вскоре после взлёта

У Boeing 767-400ER авиакомпании United возникли проблемы со спойлерами

У Boeing 767-400ER авиакомпании United возникли проблемы со спойлерами

Boeing 767-424ER авиакомпании United Airlines (UA), выполнявший рейс из Вашингтона в Амстердам, вернулся в аэропорт

Отказ двигателя CFM56 не дал Boeing 737-900 авиакомпании United взлететь из Сан-Диего

Отказ двигателя CFM56 не дал Boeing 737-900 авиакомпании United взлететь из Сан-Диего

Boeing 737-924ERWL авиакомпании United Airlines (UA) прервал разбег в аэропорту Сан-Диего из-за отказа двигателя. Самолёт

Запах дыма приземлил новый Boeing 787-10 авиакомпании United

Запах дыма приземлил новый Boeing 787-10 авиакомпании United

Boeing 787-10 авиакомпании United Airlines (UA) прервал трансатлантический рейс из-за запаха дыма в салоне. На

У старого Boeing 757-200 авиакомпании United отказал двигатель Pratt & Whitney

У старого Boeing 757-200 авиакомпании United отказал двигатель Pratt & Whitney

Boeing 757-222WL авиакомпании United Airlines (UA) вернулся в аэропорт из-за отказа двигателя Pratt & Whitney.

Load More

Происшествия с Boeing 737 поколения Next Generation

AllBoeing 737-800Boeing 737-900Boeing 737-700
Сильные вибрации вернули Boeing 737-900ER в аэропорт

Сильные вибрации вернули Boeing 737-900ER в аэропорт

Boeing 737-924ERWL авиакомпании United Airlines (UA) вернулся в аэропорт из-за вибраций в фюзеляже. Вскоре после

Бразильский Boeing 737-800 не взлетел из-за отказа двигателя CFM56

Бразильский Boeing 737-800 не взлетел из-за отказа двигателя CFM56

Boeing 737-8EHWL авиакомпании GOL Transportes Aéreos (G3) прервал разбег из-за отказа двигателя. Инцидент произошёл в

Boeing 737-800 авиакомпании El Al разгерметизировался при взлёте из Вены

Boeing 737-800 авиакомпании El Al разгерметизировался при взлёте из Вены

Boeing 737-8Q8WL авиакомпании El Al (LY) вернулся в Вену из-за разгерметизации салона. Вскоре после взлёта

Чешский Boeing 737-800 пролетел над Центральной Европой на одном моторе

Чешский Boeing 737-800 пролетел над Центральной Европой на одном моторе

Boeing 737-8CXWL авиакомпании Smartwings (QS) пролетел над Центральной Европой на одном моторе. Самолёт выполнял рейс

Отказ двигателя CFM56 не дал Boeing 737-900 авиакомпании United взлететь из Сан-Диего

Отказ двигателя CFM56 не дал Boeing 737-900 авиакомпании United взлететь из Сан-Диего

Boeing 737-924ERWL авиакомпании United Airlines (UA) прервал разбег в аэропорту Сан-Диего из-за отказа двигателя. Самолёт

Boeing 737-700 авиакомпании Smartavia вернулся в Самару из-за отказа системы вентиляции салона

Boeing 737-700 авиакомпании Smartavia вернулся в Самару из-за отказа системы вентиляции салона

Boeing 737-752WL авиакомпании Smartavia (5N) вернулся в Самару из-за отказа системы вентиляции салона. На высоте

Load More